Time;durP1;ratioP1;P1;durP2;ratioP2;P2;SDS_P1;SDS_P2;PMS_P1;PMS_P2;Temp;Humidity;BMP_temperature;BMP_pressure;BME280_temperature;BME280_humidity;BME280_pressure;Samples;Min_cycle;Max_cycle;Signal;HPM_P1;HPM_P2
2023/07/27 00:01:15;;;;;;;3.08;1.50;;;;;;;17.53;67.17;101011.56;4992285;28;97360;-27
2023/07/27 00:03:40;;;;;;;1.73;1.02;;;;;;;17.47;66.86;101014.84;4991981;28;99023;-27
2023/07/27 00:06:06;;;;;;;1.92;0.93;;;;;;;17.38;69.21;101014.66;4992219;28;96624;-27
2023/07/27 00:08:31;;;;;;;1.52;0.90;;;;;;;17.34;70.53;101021.41;4992509;28;96731;-27
2023/07/27 00:10:56;;;;;;;2.03;1.00;;;;;;;17.30;69.67;101008.97;4992067;28;97888;-28
2023/07/27 00:13:22;;;;;;;1.63;0.85;;;;;;;17.23;69.56;101006.91;4992399;28;97324;-27
2023/07/27 00:15:47;;;;;;;2.33;0.80;;;;;;;17.19;71.15;101015.41;4992001;28;96719;-30
2023/07/27 00:18:13;;;;;;;1.50;0.88;;;;;;;17.20;73.35;101013.53;4992124;28;96732;-29
2023/07/27 00:20:38;;;;;;;2.08;1.00;;;;;;;17.12;71.71;101007.84;4990913;28;102926;-27
2023/07/27 00:23:03;;;;;;;1.65;0.90;;;;;;;17.08;73.05;101014.59;4991909;28;98264;-28
2023/07/27 00:25:29;;;;;;;1.65;0.85;;;;;;;17.06;72.03;101001.03;4992222;28;96581;-27
2023/07/27 00:27:54;;;;;;;2.28;0.90;;;;;;;17.08;72.80;101001.78;4991821;28;97115;-28
2023/07/27 00:30:19;;;;;;;1.10;0.70;;;;;;;16.97;72.49;100999.09;4991912;28;98133;-28
2023/07/27 00:32:45;;;;;;;1.05;0.75;;;;;;;16.87;73.65;100995.41;4991680;28;99005;-27
2023/07/27 00:35:10;;;;;;;1.38;1.00;;;;;;;16.80;74.66;100995.06;4994508;28;96700;-27
2023/07/27 00:37:35;;;;;;;2.92;1.13;;;;;;;16.76;76.68;100985.38;4995899;28;96754;-27
2023/07/27 00:40:01;;;;;;;3.22;1.08;;;;;;;16.74;78.08;100985.50;4995073;28;99449;-28
2023/07/27 00:42:27;;;;;;;1.42;1.00;;;;;;;16.66;76.37;100990.75;4995323;28;97301;-27
2023/07/27 00:44:52;;;;;;;0.98;0.70;;;;;;;16.53;76.95;100982.72;4993298;28;96685;-27
2023/07/27 00:47:18;;;;;;;1.77;0.98;;;;;;;16.55;78.17;100972.50;4994872;28;108591;-27
2023/07/27 00:49:43;;;;;;;2.35;1.08;;;;;;;16.63;76.79;100969.13;4993587;28;101003;-27
2023/07/27 00:52:08;;;;;;;1.80;0.90;;;;;;;16.53;77.77;100958.09;4994946;28;99054;-28
2023/07/27 00:54:34;;;;;;;1.25;0.73;;;;;;;16.47;77.93;100963.22;4994869;28;96572;-27
2023/07/27 00:57:01;;;;;;;1.98;0.85;;;;;;;16.39;77.89;100952.06;4995339;28;96765;-27
2023/07/27 00:59:27;;;;;;;2.75;0.55;;;;;;;16.45;79.44;100957.03;4993122;28;101338;-28
2023/07/27 01:01:53;;;;;;;1.45;0.70;;;;;;;16.47;79.18;100947.69;4993770;28;100987;-28
2023/07/27 01:04:19;;;;;;;1.83;0.90;;;;;;;16.53;79.14;100944.41;4994722;28;96779;-28
2023/07/27 01:06:44;;;;;;;1.17;0.52;;;;;;;16.47;79.53;100933.13;4995127;28;96813;-27
2023/07/27 01:09:10;;;;;;;2.80;1.02;;;;;;;16.50;77.95;100930.16;4994509;28;97415;-28
2023/07/27 01:11:38;;;;;;;0.63;0.60;;;;;;;16.49;78.72;100925.66;4993290;28;97934;-27
2023/07/27 01:14:12;;;;;;;1.23;0.60;;;;;;;16.41;78.00;100914.53;4994832;28;96479;-27
2023/07/27 01:16:46;;;;;;;5.05;0.60;;;;;;;16.42;76.93;100908.94;4993543;28;96799;-27
2023/07/27 01:19:30;;;;;;;1.33;0.70;;;;;;;16.38;80.07;100901.13;4993282;28;101291;-27
2023/07/27 01:22:19;;;;;;;3.03;0.88;;;;;;;16.44;80.22;100904.19;4993273;28;100961;-27
2023/07/27 01:25:09;;;;;;;2.55;0.98;;;;;;;16.45;79.60;100900.47;4990059;28;96718;-27
2023/07/27 01:28:22;;;;;;;2.35;1.00;;;;;;;16.46;79.11;100898.59;4994612;28;96843;-27
2023/07/27 01:30:57;;;;;;;1.75;1.00;;;;;;;16.42;78.50;100892.53;4986112;28;100938;-27
2023/07/27 01:33:35;;;;;;;1.92;1.13;;;;;;;16.45;78.73;100885.94;4994314;28;99294;-28
2023/07/27 01:36:20;;;;;;;1.55;0.82;;;;;;;16.42;78.90;100881.59;4992653;28;96681;-27
2023/07/27 01:38:48;;;;;;;2.65;1.35;;;;;;;16.35;81.56;100873.06;4993049;28;96766;-27
2023/07/27 01:41:15;;;;;;;2.17;1.20;;;;;;;16.30;81.73;100874.44;4992836;28;101926;-27
2023/07/27 01:43:43;;;;;;;1.65;0.95;;;;;;;16.22;82.71;100857.81;4992872;28;100859;-28
2023/07/27 01:46:10;;;;;;;1.80;1.20;;;;;;;16.22;82.30;100855.09;4992717;28;96585;-27
2023/07/27 01:48:38;;;;;;;2.00;1.13;;;;;;;16.28;81.68;100854.53;4992838;28;96641;-28
2023/07/27 01:51:05;;;;;;;2.35;1.35;;;;;;;16.28;80.49;100849.09;4994149;28;97402;-28
2023/07/27 01:53:31;;;;;;;2.60;1.42;;;;;;;16.32;80.77;100856.88;4994295;28;99313;-28
2023/07/27 01:55:59;;;;;;;2.60;1.42;;;;;;;16.23;82.08;100843.16;4992617;28;96822;-28
2023/07/27 01:58:26;;;;;;;2.38;1.17;;;;;;;16.22;82.85;100849.63;4992626;28;96943;-28
2023/07/27 02:00:55;;;;;;;3.78;1.30;;;;;;;16.09;82.32;100837.00;4992015;28;101480;-29
2023/07/27 02:03:20;;;;;;;3.28;1.30;;;;;;;16.11;81.38;100837.75;4992497;28;100820;-27
2023/07/27 02:05:46;;;;;;;3.55;1.30;;;;;;;16.07;82.35;100817.16;4992621;28;96628;-28
2023/07/27 02:08:11;;;;;;;2.50;1.02;;;;;;;16.10;84.34;100825.06;4994248;28;96885;-28
2023/07/27 02:10:39;;;;;;;2.28;1.30;;;;;;;15.98;82.59;100806.13;4993715;28;99285;-27
2023/07/27 02:13:09;;;;;;;3.17;1.40;;;;;;;16.01;84.00;100801.25;4992372;28;101284;-28
2023/07/27 02:15:42;;;;;;;2.83;1.05;;;;;;;15.99;84.88;100805.97;4992470;28;97054;-27
2023/07/27 02:18:16;;;;;;;1.80;1.20;;;;;;;15.98;84.54;100793.34;4992847;28;96841;-29
2023/07/27 02:20:43;;;;;;;2.13;1.02;;;;;;;15.96;83.44;100789.84;4992115;28;101574;-27
2023/07/27 02:23:10;;;;;;;1.65;1.10;;;;;;;15.93;85.09;100790.13;4992102;28;101125;-27
2023/07/27 02:25:36;;;;;;;4.03;1.60;;;;;;;15.91;86.31;100783.94;4991410;28;97090;-29
2023/07/27 02:28:01;;;;;;;2.45;1.50;;;;;;;15.88;86.49;100771.41;4992268;28;96792;-27
2023/07/27 02:30:26;;;;;;;4.13;1.98;;;;;;;15.89;88.25;100775.00;4993323;28;99586;-27
2023/07/27 02:32:53;;;;;;;5.43;1.55;;;;;;;15.88;87.16;100754.16;4993646;28;97682;-28
2023/07/27 02:35:20;;;;;;;3.95;1.85;;;;;;;15.90;87.73;100754.88;4993801;28;96576;-27
2023/07/27 02:37:45;;;;;;;6.00;2.10;;;;;;;15.86;87.01;100740.59;4993675;28;96834;-28
2023/07/27 02:40:11;;;;;;;3.22;2.08;;;;;;;15.78;86.65;100734.06;4993111;28;98412;-28
2023/07/27 02:42:36;;;;;;;4.32;2.15;;;;;;;15.71;87.82;100715.47;4993375;28;99345;-28
2023/07/27 02:45:01;;;;;;;5.78;1.95;;;;;;;15.69;88.87;100714.72;4993466;28;97804;-28
2023/07/27 02:47:27;;;;;;;5.05;2.38;;;;;;;15.64;87.40;100711.50;4993724;28;96759;-28
2023/07/27 02:49:52;;;;;;;5.07;2.35;;;;;;;15.61;86.52;100725.44;4992928;28;97756;-27
2023/07/27 02:52:17;;;;;;;5.00;1.77;;;;;;;15.57;89.53;100712.16;4993230;28;97279;-28
2023/07/27 02:54:43;;;;;;;3.45;1.55;;;;;;;15.50;88.37;100706.34;4992991;28;96759;-29
2023/07/27 02:57:08;;;;;;;3.53;2.00;;;;;;;15.53;88.75;100714.28;4992487;28;96841;-28
2023/07/27 02:59:33;;;;;;;4.05;2.20;;;;;;;15.57;89.57;100707.56;4993014;28;97917;-28
2023/07/27 03:01:59;;;;;;;5.03;2.05;;;;;;;15.54;90.71;100705.09;4993192;28;97402;-28
2023/07/27 03:04:24;;;;;;;4.47;2.15;;;;;;;15.58;88.04;100697.50;4993103;28;96631;-28
2023/07/27 03:06:50;;;;;;;5.55;2.17;;;;;;;15.58;88.02;100690.19;4993565;28;96808;-29
2023/07/27 03:09:15;;;;;;;4.55;2.38;;;;;;;15.49;89.50;100680.94;4991539;28;97523;-28
2023/07/27 03:11:40;;;;;;;3.80;2.10;;;;;;;15.44;88.73;100677.69;4992712;28;99031;-28
2023/07/27 03:14:06;;;;;;;2.65;1.60;;;;;;;15.43;91.67;100680.56;4992460;28;96512;-28
2023/07/27 03:16:32;;;;;;;5.22;2.22;;;;;;;15.39;90.11;100673.63;4993120;28;96789;-29
2023/07/27 03:18:57;;;;;;;4.07;1.35;;;;;;;15.32;90.66;100665.09;4992513;28;99421;-27
2023/07/27 03:21:22;;;;;;;5.65;2.15;;;;;;;15.36;89.80;100669.31;4992678;28;97828;-28
2023/07/27 03:23:49;;;;;;;4.53;2.22;;;;;;;15.38;90.48;100661.00;4992836;28;96424;-28
2023/07/27 03:26:16;;;;;;;4.05;1.90;;;;;;;15.36;90.37;100655.66;4990665;28;96996;-27
2023/07/27 03:28:42;;;;;;;4.68;2.00;;;;;;;15.27;90.56;100646.38;4991162;28;100791;-27
2023/07/27 03:31:22;;;;;;;2.90;1.83;;;;;;;15.36;91.10;100642.00;4991494;28;101272;-28
2023/07/27 03:33:48;;;;;;;3.70;2.15;;;;;;;15.36;90.48;100627.50;4991258;28;96681;-28
2023/07/27 03:36:15;;;;;;;4.20;2.03;;;;;;;15.35;91.51;100628.47;4991202;28;96834;-28
2023/07/27 03:38:41;;;;;;;3.97;1.95;;;;;;;15.27;90.61;100627.28;4990655;28;101317;-28
2023/07/27 03:41:06;;;;;;;3.75;1.98;;;;;;;15.28;90.36;100629.03;4992279;28;98866;-28
2023/07/27 03:43:32;;;;;;;3.10;2.00;;;;;;;15.32;91.92;100623.28;4992596;28;96536;-27
2023/07/27 03:45:57;;;;;;;3.67;1.98;;;;;;;15.24;92.43;100613.03;4992486;28;96815;-28
2023/07/27 03:48:22;;;;;;;3.33;1.67;;;;;;;15.22;92.61;100617.75;4992572;28;97346;-27
2023/07/27 03:50:48;;;;;;;4.30;1.73;;;;;;;15.20;93.11;100609.69;4992089;28;99906;-29
2023/07/27 03:53:13;;;;;;;4.15;2.25;;;;;;;15.25;91.45;100610.19;4992509;28;96754;-28
2023/07/27 03:55:40;;;;;;;3.70;2.00;;;;;;;15.21;91.90;100607.84;4992508;28;96764;-28
2023/07/27 03:58:05;;;;;;;3.38;1.90;;;;;;;15.23;93.27;100604.00;4990555;28;100825;-27
2023/07/27 04:00:31;;;;;;;3.83;1.85;;;;;;;15.21;92.03;100600.53;4992172;28;97745;-28
2023/07/27 04:02:56;;;;;;;2.70;1.58;;;;;;;15.22;93.57;100588.59;4991481;28;96719;-29
2023/07/27 04:05:23;;;;;;;3.60;2.13;;;;;;;15.19;91.79;100580.69;4992449;28;96831;-28
2023/07/27 04:07:51;;;;;;;3.97;2.00;;;;;;;15.28;94.57;100592.69;4991440;28;98014;-29
2023/07/27 04:10:17;;;;;;;2.60;1.50;;;;;;;15.20;93.74;100576.94;4991400;28;97898;-28
2023/07/27 04:12:43;;;;;;;3.88;1.77;;;;;;;15.20;95.25;100585.13;4990790;28;96615;-29
2023/07/27 04:15:08;;;;;;;2.90;1.65;;;;;;;15.20;94.72;100573.34;4992360;28;96819;-28
2023/07/27 04:17:34;;;;;;;4.18;2.00;;;;;;;15.25;95.54;100579.28;4991602;28;100452;-27
2023/07/27 04:19:59;;;;;;;3.95;2.15;;;;;;;15.15;93.60;100559.25;4990813;28;99568;-28
2023/07/27 04:22:25;;;;;;;3.75;1.95;;;;;;;15.21;94.82;100567.78;4991611;28;96624;-27
2023/07/27 04:24:50;;;;;;;3.17;1.70;;;;;;;15.24;95.14;100564.78;4992225;28;96806;-28
2023/07/27 04:27:15;;;;;;;3.08;1.92;;;;;;;15.21;96.08;100566.91;4990922;28;99325;-27
2023/07/27 04:29:41;;;;;;;7.05;2.08;;;;;;;15.22;96.94;100569.50;4991879;28;97832;-28
2023/07/27 04:32:07;;;;;;;3.78;1.63;;;;;;;15.19;96.64;100558.84;4991717;28;96518;-28
2023/07/27 04:34:32;;;;;;;3.35;1.48;;;;;;;15.25;95.97;100563.81;4991821;28;96885;-29
2023/07/27 04:36:58;;;;;;;3.72;1.52;;;;;;;15.24;96.96;100562.06;4991890;28;97914;-28
2023/07/27 04:39:23;;;;;;;2.58;1.15;;;;;;;15.25;98.27;100554.72;4992133;28;97677;-28
2023/07/27 04:41:48;;;;;;;4.07;1.50;;;;;;;15.31;96.60;100556.06;4991960;28;96736;-28
2023/07/27 04:44:14;;;;;;;2.13;1.17;;;;;;;15.26;95.34;100542.81;4992333;28;96756;-28
2023/07/27 04:46:39;;;;;;;1.35;0.90;;;;;;;15.28;98.23;100541.69;4991479;28;99283;-28
2023/07/27 04:49:06;;;;;;;1.60;1.00;;;;;;;15.32;97.02;100545.00;4991736;28;97504;-28
2023/07/27 04:51:32;;;;;;;1.92;1.10;;;;;;;15.37;95.67;100552.81;4989663;28;97404;-28
2023/07/27 04:53:58;;;;;;;1.40;0.88;;;;;;;15.36;97.56;100546.47;4990005;28;96923;-28
2023/07/27 04:56:23;;;;;;;1.92;0.98;;;;;;;15.34;98.08;100533.97;4991512;28;97675;-28
2023/07/27 04:58:48;;;;;;;2.78;1.10;;;;;;;15.32;99.36;100534.09;4991417;28;97788;-28
2023/07/27 05:01:14;;;;;;;2.70;1.00;;;;;;;15.39;98.43;100531.69;4991372;28;96807;-27
2023/07/27 05:03:39;;;;;;;1.75;1.10;;;;;;;15.40;98.48;100528.84;4991744;28;96864;-29
2023/07/27 05:06:04;;;;;;;1.65;0.95;;;;;;;15.41;98.89;100516.06;4991210;28;98367;-28
2023/07/27 05:08:30;;;;;;;3.00;1.08;;;;;;;15.38;100.00;100514.47;4991928;28;97197;-28
2023/07/27 05:10:55;;;;;;;1.80;0.98;;;;;;;15.43;98.02;100519.53;4991677;28;96806;-27
2023/07/27 05:13:20;;;;;;;1.80;1.08;;;;;;;15.43;98.13;100500.41;4991645;28;96799;-28
2023/07/27 05:15:46;;;;;;;1.88;1.17;;;;;;;15.49;100.00;100511.69;4991084;28;96764;-28
2023/07/27 05:18:13;;;;;;;1.77;1.00;;;;;;;15.44;100.00;100499.41;4989892;28;97986;-28
2023/07/27 05:20:38;;;;;;;2.25;1.00;;;;;;;15.49;99.14;100494.41;4991556;28;96850;-28
2023/07/27 05:23:04;;;;;;;1.52;1.05;;;;;;;15.55;100.00;100493.03;4994689;28;96798;-28
2023/07/27 05:25:29;;;;;;;1.95;1.15;;;;;;;15.61;99.64;100497.91;4994515;28;99376;-28
2023/07/27 05:27:55;;;;;;;2.67;1.40;;;;;;;15.63;100.00;100502.25;4994466;28;97279;-27
2023/07/27 05:30:20;;;;;;;2.45;1.13;;;;;;;15.66;99.47;100502.00;4994744;28;96701;-28
2023/07/27 05:32:45;;;;;;;2.33;1.38;;;;;;;15.73;99.79;100502.34;4995008;28;96752;-28
2023/07/27 05:35:11;;;;;;;2.45;0.95;;;;;;;15.79;100.00;100500.94;4994228;28;99101;-27
2023/07/27 05:37:37;;;;;;;1.90;1.30;;;;;;;15.78;100.00;100493.72;4994422;28;97721;-28
2023/07/27 05:40:04;;;;;;;1.05;0.75;;;;;;;15.86;98.83;100492.03;4992632;28;97278;-29
2023/07/27 05:42:30;;;;;;;2.20;0.77;;;;;;;15.89;100.00;100480.84;4992974;28;96764;-28
2023/07/27 05:44:55;;;;;;;1.13;0.73;;;;;;;15.92;100.00;100485.16;4994379;28;97526;-28
2023/07/27 05:47:20;;;;;;;2.78;0.70;;;;;;;15.92;100.00;100487.88;4994394;28;97242;-28
2023/07/27 05:49:46;;;;;;;1.40;0.90;;;;;;;15.95;100.00;100473.13;4993920;28;96639;-29
2023/07/27 05:52:11;;;;;;;1.42;0.82;;;;;;;15.98;100.00;100468.22;4994385;28;96818;-28
2023/07/27 05:54:37;;;;;;;2.25;0.90;;;;;;;16.04;100.00;100478.59;4993894;28;99378;-27
2023/07/27 05:57:02;;;;;;;2.42;1.30;;;;;;;16.08;100.00;100473.72;4994325;28;99415;-28
2023/07/27 05:59:28;;;;;;;0.90;0.63;;;;;;;16.12;100.00;100476.03;4993212;28;96851;-28
2023/07/27 06:01:53;;;;;;;0.98;0.70;;;;;;;16.13;100.00;100471.44;4994159;28;96912;-27
2023/07/27 06:04:19;;;;;;;2.30;0.45;;;;;;;16.15;100.00;100469.41;4993351;28;99240;-28
2023/07/27 06:06:45;;;;;;;0.80;0.50;;;;;;;16.20;100.00;100472.59;4993742;28;99276;-28
2023/07/27 06:09:11;;;;;;;0.70;0.63;;;;;;;16.26;100.00;100468.44;4994020;28;96527;-28
2023/07/27 06:11:36;;;;;;;2.25;0.80;;;;;;;16.24;100.00;100465.84;4994196;28;96896;-28
2023/07/27 06:14:02;;;;;;;2.83;0.55;;;;;;;16.31;100.00;100463.44;4993712;28;99870;-28
2023/07/27 06:16:27;;;;;;;2.17;0.65;;;;;;;16.31;100.00;100457.97;4992391;28;97935;-28
2023/07/27 06:18:53;;;;;;;0.60;0.35;;;;;;;16.33;100.00;100453.22;4994057;28;96597;-27
2023/07/27 06:21:18;;;;;;;1.52;0.85;;;;;;;16.41;100.00;100469.75;4994353;28;96948;-28
2023/07/27 06:23:44;;;;;;;0.47;0.30;;;;;;;16.45;100.00;100464.88;4993607;28;99074;-28
2023/07/27 06:26:09;;;;;;;0.70;0.52;;;;;;;16.45;100.00;100457.53;4993213;28;97473;-28
2023/07/27 06:28:35;;;;;;;0.50;0.32;;;;;;;16.54;100.00;100464.00;4993222;28;96555;-28
2023/07/27 06:31:02;;;;;;;1.98;0.70;;;;;;;16.58;100.00;100459.13;4991724;28;97056;-27
2023/07/27 06:33:27;;;;;;;0.90;0.60;;;;;;;16.66;100.00;100459.28;4991535;28;101109;-28
2023/07/27 06:35:52;;;;;;;1.13;0.60;;;;;;;16.67;100.00;100458.28;4993772;28;97231;-27
2023/07/27 06:38:18;;;;;;;1.48;0.90;;;;;;;16.61;100.00;100450.63;4993667;28;96430;-28
2023/07/27 06:40:43;;;;;;;1.60;0.93;;;;;;;16.71;100.00;100448.78;4993465;28;96851;-27
2023/07/27 06:43:08;;;;;;;2.25;1.05;;;;;;;16.76;99.53;100457.41;4993159;28;98906;-28
2023/07/27 06:45:34;;;;;;;1.83;0.90;;;;;;;16.73;98.87;100446.75;4993838;28;97768;-28
2023/07/27 06:47:59;;;;;;;1.75;0.98;;;;;;;16.73;99.91;100452.22;4993237;28;96587;-28
2023/07/27 06:50:24;;;;;;;4.30;1.02;;;;;;;16.73;100.00;100452.22;4993684;28;96812;-28
2023/07/27 06:52:50;;;;;;;2.78;0.93;;;;;;;16.74;100.00;100448.50;4992764;28;97933;-28
2023/07/27 06:55:17;;;;;;;1.08;0.77;;;;;;;16.79;100.00;100459.88;4993110;28;97793;-28
2023/07/27 06:57:42;;;;;;;2.35;0.80;;;;;;;16.83;100.00;100458.59;4992986;28;96651;-28
2023/07/27 07:00:08;;;;;;;1.30;0.68;;;;;;;16.86;100.00;100465.66;4993125;28;96548;-28
2023/07/27 07:02:34;;;;;;;3.33;0.88;;;;;;;16.84;100.00;100457.56;4991328;28;99791;-28
2023/07/27 07:04:59;;;;;;;1.52;0.60;;;;;;;16.86;100.00;100450.09;4992768;28;99083;-28
2023/07/27 07:07:25;;;;;;;1.08;0.52;;;;;;;16.90;100.00;100445.19;4993220;28;96697;-28
2023/07/27 07:09:52;;;;;;;0.73;0.43;;;;;;;16.93;100.00;100469.53;4992026;28;96953;-28
2023/07/27 07:12:17;;;;;;;1.48;0.57;;;;;;;16.93;100.00;100462.19;4991330;28;101306;-28
2023/07/27 07:14:43;;;;;;;0.50;0.30;;;;;;;16.91;100.00;100449.66;4993004;28;97199;-28
2023/07/27 07:17:08;;;;;;;1.63;0.52;;;;;;;16.93;100.00;100456.72;4992317;28;96491;-28
2023/07/27 07:19:34;;;;;;;0.65;0.32;;;;;;;17.00;100.00;100461.63;4993009;28;96785;-28
2023/07/27 07:21:59;;;;;;;1.15;0.38;;;;;;;16.96;100.00;100448.22;4992839;28;97808;-28
2023/07/27 07:24:25;;;;;;;0.70;0.40;;;;;;;17.06;100.00;100464.59;4992879;28;97904;-28
2023/07/27 07:26:50;;;;;;;0.10;0.10;;;;;;;17.07;100.00;100460.88;4992352;28;96856;-28
2023/07/27 07:29:15;;;;;;;0.85;0.50;;;;;;;17.09;100.00;100458.88;4993044;28;96791;-29
2023/07/27 07:31:41;;;;;;;0.57;0.40;;;;;;;17.11;100.00;100462.31;4992714;28;97996;-28
2023/07/27 07:34:06;;;;;;;1.63;0.52;;;;;;;17.16;100.00;100459.13;4993174;28;97271;-29
2023/07/27 07:36:32;;;;;;;0.45;0.25;;;;;;;17.19;100.00;100448.75;4992717;28;97496;-28
2023/07/27 07:38:57;;;;;;;1.02;0.40;;;;;;;17.21;100.00;100456.84;4992655;28;96829;-27
2023/07/27 07:41:22;;;;;;;0.35;0.25;;;;;;;17.18;100.00;100437.94;4992064;28;97987;-28
2023/07/27 07:43:48;;;;;;;1.27;0.22;;;;;;;17.21;100.00;100437.66;4992120;28;99264;-28
2023/07/27 07:46:14;;;;;;;0.55;0.47;;;;;;;17.22;100.00;100435.78;4991141;28;96671;-28
2023/07/27 07:48:40;;;;;;;1.13;0.57;;;;;;;17.30;100.00;100444.97;4992610;28;96849;-27
2023/07/27 07:51:12;;;;;;;0.95;0.45;;;;;;;17.32;100.00;100442.09;4992679;28;97184;-28
2023/07/27 07:53:37;;;;;;;0.43;0.28;;;;;;;17.34;100.00;100440.94;4992363;28;97317;-28
2023/07/27 07:56:03;;;;;;;2.17;0.50;;;;;;;17.40;100.00;100453.19;4992339;28;96660;-27
2023/07/27 07:58:29;;;;;;;0.38;0.15;;;;;;;17.39;100.00;100451.44;4991247;28;96826;-27
2023/07/27 08:00:56;;;;;;;0.70;0.40;;;;;;;17.44;100.00;100445.53;4990789;28;100863;-28
2023/07/27 08:03:21;;;;;;;0.80;0.47;;;;;;;17.45;100.00;100441.75;4990646;28;101011;-27
2023/07/27 08:05:47;;;;;;;0.52;0.28;;;;;;;17.47;100.00;100446.09;4991501;28;96700;-28
2023/07/27 08:08:13;;;;;;;1.30;0.20;;;;;;;17.47;100.00;100434.25;4992394;28;96812;-27
2023/07/27 08:10:38;;;;;;;0.63;0.35;;;;;;;17.48;100.00;100430.53;4991916;28;99939;-27
2023/07/27 08:13:04;;;;;;;0.65;0.22;;;;;;;17.52;100.00;100431.94;4992252;28;97844;-28
2023/07/27 08:15:29;;;;;;;1.40;0.25;;;;;;;17.52;100.00;100427.34;4992123;28;97335;-27
2023/07/27 08:17:55;;;;;;;0.10;0.05;;;;;;;17.59;100.00;100425.72;4992380;28;96869;-28
2023/07/27 08:20:21;;;;;;;2.00;0.40;;;;;;;17.69;100.00;100422.09;4991837;28;98819;-28
2023/07/27 08:22:46;;;;;;;4.00;0.30;;;;;;;17.69;100.00;100431.16;4992143;28;98824;-27
2023/07/27 08:25:12;;;;;;;0.82;0.10;;;;;;;17.70;100.00;100427.41;4991956;28;96495;-28
2023/07/27 08:27:37;;;;;;;0.50;0.30;;;;;;;17.67;100.00;100419.50;4991593;28;96969;-28
2023/07/27 08:30:03;;;;;;;0.20;0.08;;;;;;;17.70;100.00;100415.59;4991262;28;97448;-28
2023/07/27 08:32:29;;;;;;;0.20;0.20;;;;;;;17.75;100.00;100421.47;4992009;28;97811;-27
2023/07/27 08:34:54;;;;;;;0.22;0.15;;;;;;;17.76;100.00;100424.06;4991996;28;96703;-28
2023/07/27 08:37:20;;;;;;;1.10;0.38;;;;;;;17.83;100.00;100418.88;4991897;28;96585;-28
2023/07/27 08:39:45;;;;;;;0.10;0.10;;;;;;;17.77;100.00;100409.34;4991724;28;97924;-28
2023/07/27 08:42:18;;;;;;;0.30;0.10;;;;;;;17.88;100.00;100422.03;4991574;28;99142;-28
2023/07/27 08:44:44;;;;;;;1.02;0.40;;;;;;;17.87;100.00;100416.69;4991778;28;96581;-28
2023/07/27 08:47:10;;;;;;;0.47;0.30;;;;;;;17.86;100.00;100410.34;4990689;28;96940;-28
2023/07/27 08:49:37;;;;;;;1.20;0.40;;;;;;;17.85;100.00;100424.19;4990119;28;100776;-27
2023/07/27 08:52:03;;;;;;;3.10;0.30;;;;;;;17.85;100.00;100433.25;4990182;28;101071;-28
2023/07/27 08:54:29;;;;;;;0.38;0.38;;;;;;;17.85;100.00;100432.41;4991031;28;96896;-27
2023/07/27 08:56:54;;;;;;;0.17;0.17;;;;;;;17.81;100.00;100424.50;4993735;28;96840;-27
2023/07/27 08:59:20;;;;;;;0.60;0.38;;;;;;;17.88;100.00;100432.97;4994577;28;98028;-28
2023/07/27 09:01:45;;;;;;;0.40;0.28;;;;;;;17.99;100.00;100435.50;4993328;28;100916;-28
2023/07/27 09:04:11;;;;;;;0.30;0.25;;;;;;;18.03;100.00;100438.81;4995093;28;96544;-28
2023/07/27 09:06:37;;;;;;;1.35;0.45;;;;;;;18.04;100.00;100441.41;4994933;28;96807;-28
2023/07/27 09:09:13;;;;;;;1.63;0.28;;;;;;;18.04;100.00;100432.31;4994735;28;99490;-27
2023/07/27 09:11:39;;;;;;;0.13;0.10;;;;;;;18.09;100.00;100434.59;4993640;28;101319;-27
2023/07/27 09:14:04;;;;;;;0.20;0.10;;;;;;;18.09;100.00;100430.00;4993341;28;96712;-28
2023/07/27 09:16:33;;;;;;;0.65;0.30;;;;;;;18.16;100.00;100444.81;4993529;28;96922;-27
2023/07/27 09:19:00;;;;;;;0.20;0.10;;;;;;;18.16;100.00;100428.34;4994034;28;97513;-28
2023/07/27 09:21:26;;;;;;;0.65;0.17;;;;;;;18.09;100.00;100415.41;4993218;28;100786;-27
2023/07/27 09:23:52;;;;;;;0.52;0.25;;;;;;;18.13;100.00;100430.53;4993507;28;96493;-28
2023/07/27 09:26:24;;;;;;;1.10;0.32;;;;;;;18.17;100.00;100432.81;4994301;28;96853;-27
2023/07/27 09:28:49;;;;;;;0.63;0.30;;;;;;;18.20;100.00;100420.66;4993147;28;101262;-28
2023/07/27 09:31:15;;;;;;;0.28;0.20;;;;;;;18.30;100.00;100434.31;4994602;28;97725;-27
2023/07/27 09:33:40;;;;;;;2.30;0.40;;;;;;;18.33;100.00;100431.25;4994862;28;96628;-28
2023/07/27 09:36:09;;;;;;;1.67;0.60;;;;;;;18.27;100.00;100426.41;4995421;28;96823;-27
2023/07/27 09:38:35;;;;;;;1.13;0.22;;;;;;;18.30;100.00;100435.16;4993006;28;101545;-27
2023/07/27 09:41:08;;;;;;;1.60;0.25;;;;;;;18.29;100.00;100444.44;4992548;28;100965;-28
2023/07/27 09:43:42;;;;;;;0.52;0.28;;;;;;;18.24;100.00;100439.41;4992454;28;97499;-27
2023/07/27 09:46:08;;;;;;;0.40;0.17;;;;;;;18.24;100.00;100430.31;4994656;28;96701;-28
2023/07/27 09:48:34;;;;;;;2.28;0.30;;;;;;;18.31;100.00;100430.56;4994064;28;99369;-27
2023/07/27 09:51:01;;;;;;;0.98;0.20;;;;;;;18.34;100.00;100433.00;4992641;28;100827;-27
2023/07/27 09:53:31;;;;;;;0.57;0.35;;;;;;;18.33;100.00;100426.66;4992669;28;96644;-27
2023/07/27 09:55:58;;;;;;;0.25;0.17;;;;;;;18.42;100.00;100444.03;4992699;28;96741;-28
2023/07/27 09:58:24;;;;;;;0.10;0.10;;;;;;;18.44;100.00;100440.13;4992511;28;100856;-27
2023/07/27 10:00:50;;;;;;;0.85;0.50;;;;;;;18.37;100.00;100443.66;4993062;28;101436;-28
2023/07/27 10:03:15;;;;;;;0.63;0.30;;;;;;;18.40;100.00;100441.47;4994254;28;96693;-27
2023/07/27 10:05:41;;;;;;;0.65;0.30;;;;;;;18.42;100.00;100435.81;4993499;28;96627;-27
2023/07/27 10:08:08;;;;;;;0.35;0.25;;;;;;;18.42;100.00;100427.59;4991015;28;101195;-28
2023/07/27 10:10:33;;;;;;;1.08;0.45;;;;;;;18.51;100.00;100436.75;4992560;28;100809;-27
2023/07/27 10:13:10;;;;;;;2.42;0.30;;;;;;;18.60;100.00;100433.94;4994009;28;96678;-29
2023/07/27 10:15:43;;;;;;;1.33;0.10;;;;;;;18.68;100.00;100423.03;4994201;28;96655;-28
2023/07/27 10:18:12;;;;;;;0.17;0.10;;;;;;;18.92;100.00;100426.19;4992445;28;98997;-28
2023/07/27 10:20:38;;;;;;;1.40;0.43;;;;;;;19.16;100.00;100428.25;4992239;28;101728;-28
2023/07/27 10:23:18;;;;;;;0.60;0.30;;;;;;;19.26;100.00;100423.53;4993846;28;96581;-27
2023/07/27 10:25:53;;;;;;;1.27;0.20;;;;;;;19.34;100.00;100429.06;4993976;28;96599;-27
2023/07/27 10:28:33;;;;;;;0.98;0.28;;;;;;;19.39;100.00;100428.59;4993444;28;99360;-28
2023/07/27 10:31:14;;;;;;;0.40;0.25;;;;;;;19.34;99.96;100431.81;4993421;28;99211;-27
2023/07/27 10:33:57;;;;;;;0.17;0.17;;;;;;;19.28;100.00;100429.72;4993117;28;96476;-28
2023/07/27 10:36:26;;;;;;;0.65;0.22;;;;;;;19.29;100.00;100424.06;4992257;28;97216;-28
2023/07/27 10:38:53;;;;;;;0.20;0.20;;;;;;;19.35;100.00;100430.78;4993386;28;98023;-27
2023/07/27 10:41:24;;;;;;;0.63;0.40;;;;;;;19.38;100.00;100427.75;4993283;28;97842;-29
2023/07/27 10:44:07;;;;;;;0.90;0.30;;;;;;;19.36;100.00;100427.03;4992174;28;96720;-27
2023/07/27 10:46:36;;;;;;;0.45;0.15;;;;;;;19.34;100.00;100431.81;4993310;28;96724;-28
2023/07/27 10:49:09;;;;;;;0.90;0.32;;;;;;;19.35;100.00;100438.16;4991896;28;100949;-29
2023/07/27 10:51:35;;;;;;;0.10;0.10;;;;;;;19.28;100.00;100432.47;4992144;28;100489;-29
2023/07/27 10:54:01;;;;;;;0.52;0.35;;;;;;;19.27;100.00;100431.59;4993021;28;96816;-29
2023/07/27 10:56:27;;;;;;;0.45;0.20;;;;;;;19.29;100.00;100420.47;4993397;28;96819;-27
2023/07/27 10:58:59;;;;;;;1.10;0.25;;;;;;;19.28;100.00;100426.97;4990912;28;101177;-27
2023/07/27 11:01:24;;;;;;;;;;;;;;;19.25;100.00;100430.03;4992156;28;101021;-27
2023/07/27 11:03:49;;;;;;;0.93;0.30;;;;;;;19.23;100.00;100426.59;4993331;28;96486;-28
2023/07/27 11:06:17;;;;;;;1.35;0.30;;;;;;;19.26;100.00;100431.78;4993237;28;96950;-31
2023/07/27 11:08:43;;;;;;;0.43;0.28;;;;;;;19.24;100.00;100417.34;4991491;28;101434;-29
2023/07/27 11:11:20;;;;;;;1.52;0.52;;;;;;;19.23;100.00;100432.94;4993037;28;97943;-27
2023/07/27 11:13:46;;;;;;;4.57;0.40;;;;;;;19.16;100.00;100414.53;4991696;28;96774;-27
2023/07/27 11:16:15;;;;;;;1.00;0.35;;;;;;;19.17;100.00;100430.00;4993395;28;96952;-27
2023/07/27 11:18:42;;;;;;;1.33;0.35;;;;;;;19.14;100.00;100430.28;4990982;28;100839;-27